hwlogo.jpg (8581 bytes)
Home Your Weather Products Services Weather On Your Site Contact
HW Version Logo
Weather Info
Your Weather (Options)
Canadian Weather
International Weather
Enter your " Place, State", US Zip Code or ICAO:  
Forecast Information Radar Information
Elliot Lake, Ontario, Canada  Lat: 46.52N, Lon: 82.3W
ICAO Used: CYZE
Current Conditions
Updated:
Sun & Moon Information:
Temp: N/A
Humidity: N/A
Wind Speed: N/A
Barometer: N/A
Dewpoint: N/A
Heat Index: N/A
Wind Chill: N/A
Civil Twilight: 7:18 AM EDT Moon Phase:
Waning Crescent Moon
Waning Crescent Moon
Sunrise: 7:49 AM EDT
Sunset: 6:37 PM EDT
Civil Twilight: 7:08 PM EDT
Forecast for Elliot Lake, ON, Canada:
(Forecast based on TAF for )
0339 PM EDT MON NOV 06 2006
  
AFTERNOONEVENING
MOSTLY CLOUDYMOSTLY CLOUDY
Mostly
Cloudy
Mostly
Cloudy
TAF based forecast:
Dated: 0339 PM EDT MON NOV 06 2006
Afternoon...Mostly cloudy with winds from the south at 14 mph.
Evening...Mostly cloudy with winds from the south at 14 mph.
Original Encoded TAF:
Dated: 0339 PM EDT MON NOV 06 2006
2006/11/06 19:39
CYZE 061939Z 062023 18012KT P6SM BKN050=


  Powered By HAMweather.
Copyright 2001 - 2003 HAMweather, LLC, all rights reserved.
US Forecasts are Public Domain and derived from the
National Weather Service - (IWIN) and the National Oceanic Atmospheric Administration (NOAA)
Canadian forecasts are obtained from and are copyright of Environment Canada.